Time;durP1;ratioP1;P1;durP2;ratioP2;P2;SDS_P1;SDS_P2;PMS_P1;PMS_P2;Temp;Humidity;BMP_temperature;BMP_pressure;BME280_temperature;BME280_humidity;BME280_pressure;Samples;Min_cycle;Max_cycle;Signal;HPM_P1;HPM_P2
2022/11/03 00:01:56;;;;;;;;;1.75;1.75;;;;;11.59;68.29;101230.31;5049435;28;9784;-66
2022/11/03 00:04:23;;;;;;;;;2.00;2.00;;;;;11.69;68.38;101227.28;5052383;28;9776;-67
2022/11/03 00:06:52;;;;;;;;;5.00;3.00;;;;;11.60;68.02;101227.41;5053458;28;9929;-65
2022/11/03 00:09:19;;;;;;;;;5.50;3.00;;;;;11.55;68.50;101220.94;5050472;28;10035;-66
2022/11/03 00:11:49;;;;;;;;;5.00;1.25;;;;;11.53;68.76;101217.59;5057228;28;10758;-67
2022/11/03 00:14:16;;;;;;;;;3.50;1.75;;;;;11.60;68.44;101221.19;5051570;28;9910;-65
2022/11/03 00:16:43;;;;;;;;;1.75;1.75;;;;;11.62;68.26;101214.56;5061390;28;9851;-66
2022/11/03 00:19:10;;;;;;;;;5.50;2.50;;;;;11.63;68.02;101210.88;5053013;28;9780;-67
2022/11/03 00:21:37;;;;;;;;;3.50;2.00;;;;;11.57;68.06;101208.09;5055566;28;9828;-66
2022/11/03 00:24:04;;;;;;;;;4.75;3.25;;;;;11.52;68.36;101208.66;5049936;28;9866;-65
2022/11/03 00:26:33;;;;;;;;;4.00;1.75;;;;;11.47;68.48;101192.25;5049141;28;9816;-67
2022/11/03 00:29:04;;;;;;;;;5.75;4.00;;;;;11.50;68.46;101193.69;5045837;28;10650;-66
2022/11/03 00:31:33;;;;;;;;;1.25;1.25;;;;;11.47;68.41;101186.00;5056253;28;9921;-66
2022/11/03 00:34:00;;;;;;;;;4.75;2.75;;;;;11.46;68.49;101198.63;5055137;28;9811;-67
2022/11/03 00:36:41;;;;;;;;;2.00;2.00;;;;;11.47;68.25;101200.31;5056700;28;9918;-67
2022/11/03 00:39:08;;;;;;;;;3.00;1.25;;;;;11.46;68.82;101187.84;5050180;28;9859;-66
2022/11/03 00:41:36;;;;;;;;;4.75;1.25;;;;;11.47;68.44;101186.84;5051683;28;9823;-66
2022/11/03 00:44:02;;;;;;;;;6.00;2.00;;;;;11.49;68.51;101194.72;5049602;28;9972;-65
2022/11/03 00:46:35;;;;;;;;;1.25;1.00;;;;;11.55;68.19;101185.88;5055797;28;9939;-67
2022/11/03 00:49:03;;;;;;;;;7.00;2.00;;;;;11.56;68.02;101187.56;5044594;28;9918;-66
2022/11/03 00:51:30;;;;;;;;;1.50;1.50;;;;;11.52;68.05;101192.50;5050070;28;9988;-66
2022/11/03 00:53:58;;;;;;;;;2.00;1.00;;;;;11.48;68.54;101183.13;5050236;28;9812;-65
2022/11/03 00:56:27;;;;;;;;;3.50;1.00;;;;;11.52;68.27;101179.00;5047665;28;9720;-66
2022/11/03 00:58:56;;;;;;;;;2.00;2.00;;;;;11.46;68.19;101189.72;5058649;28;9921;-65
2022/11/03 01:01:28;;;;;;;;;2.25;1.75;;;;;11.47;68.57;101186.00;5049326;28;9807;-66
2022/11/03 01:06:51;;;;;;;;;2.00;2.00;;;;;11.45;68.02;101174.56;5046039;28;10040;-66
2022/11/03 01:09:37;;;;;;;;;2.75;2.00;;;;;11.51;68.34;101179.22;5050718;28;10070;-65
2022/11/03 01:12:11;;;;;;;;;5.00;3.50;;;;;11.52;68.22;101175.47;5048180;28;10743;-66
2022/11/03 01:14:39;;;;;;;;;2.00;1.00;;;;;11.44;68.17;101178.31;5042856;28;10005;-66
2022/11/03 01:17:17;;;;;;;;;5.75;4.25;;;;;11.45;68.40;101175.41;5053460;28;9951;-66
2022/11/03 01:19:44;;;;;;;;;2.25;2.00;;;;;11.43;67.91;101163.16;5042906;28;10007;-67
2022/11/03 01:22:12;;;;;;;;;4.50;1.50;;;;;11.45;67.82;101169.19;5047980;28;9947;-66
2022/11/03 01:24:40;;;;;;;;;1.00;1.00;;;;;11.47;67.85;101161.75;5050009;28;9770;-67
2022/11/03 01:27:08;;;;;;;;;2.00;2.00;;;;;11.46;67.85;101160.88;5051282;28;9847;-67
2022/11/03 01:29:34;;;;;;;;;3.50;2.75;;;;;11.47;68.03;101150.97;5049207;28;9943;-67
2022/11/03 01:32:01;;;;;;;;;1.50;1.25;;;;;11.49;67.79;101136.25;5048410;28;9923;-67
2022/11/03 01:34:27;;;;;;;;;1.75;1.75;;;;;11.41;67.92;101138.25;5049253;28;9899;-66
2022/11/03 01:36:53;;;;;;;;;1.50;1.50;;;;;11.44;67.92;101132.47;5054383;28;9951;-66
2022/11/03 01:39:20;;;;;;;;;2.00;2.00;;;;;11.41;67.98;101132.84;5049862;28;9839;-66
2022/11/03 01:41:49;;;;;;;;;4.00;3.50;;;;;11.36;68.32;101118.09;5050004;28;9828;-66
2022/11/03 01:44:15;;;;;;;;;5.75;2.50;;;;;11.35;68.52;101121.81;5049835;28;10731;-66
2022/11/03 01:46:53;;;;;;;;;1.50;1.50;;;;;11.41;68.38;101112.13;5050330;28;9929;-67
2022/11/03 01:49:38;;;;;;;;;5.25;3.00;;;;;11.44;67.84;101109.06;5048724;28;9724;-65
2022/11/03 01:52:17;;;;;;;;;3.50;2.00;;;;;11.38;68.23;101115.19;5048332;28;10010;-66
2022/11/03 01:54:47;;;;;;;;;2.00;1.25;;;;;11.37;68.30;101108.16;5043229;28;10013;-66
2022/11/03 01:57:18;;;;;;;;;2.75;2.75;;;;;11.46;68.59;101106.16;5048191;28;9878;-67
2022/11/03 01:59:46;;;;;;;;;2.50;1.75;;;;;11.46;68.19;101106.97;5043928;28;9936;-65
2022/11/03 02:02:22;;;;;;;;;1.25;1.25;;;;;11.52;68.26;101108.09;5048988;28;9843;-66
2022/11/03 02:04:48;;;;;;;;;1.00;1.00;;;;;11.52;68.04;101098.13;5059630;28;9884;-67
2022/11/03 02:07:27;;;;;;;;;0.50;0.50;;;;;11.55;68.21;101096.91;5051056;28;9754;-66
2022/11/03 02:09:53;;;;;;;;;2.75;1.00;;;;;11.58;67.95;101091.13;5047955;28;9767;-68
2022/11/03 02:12:21;;;;;;;;;2.00;1.00;;;;;11.52;68.26;101090.03;5050847;28;9849;-66
2022/11/03 02:14:53;;;;;;;;;1.25;1.25;;;;;11.56;68.36;101093.19;5053091;28;10427;-67
2022/11/03 02:17:22;;;;;;;;;3.00;1.75;;;;;11.52;68.32;101089.22;5053576;28;9902;-65
2022/11/03 02:20:10;;;;;;;;;1.25;1.25;;;;;11.50;68.51;101089.38;5051818;28;10637;-66
2022/11/03 02:22:48;;;;;;;;;1.50;1.00;;;;;11.48;68.44;101079.84;5045336;28;9866;-66
2022/11/03 02:25:30;;;;;;;;;2.50;0.50;;;;;11.52;68.69;101092.75;5052131;28;9661;-65
2022/11/03 02:27:58;;;;;;;;;1.50;1.00;;;;;11.49;68.76;101081.50;5053347;28;9766;-66
2022/11/03 02:30:31;;;;;;;;;6.00;2.50;;;;;11.51;68.57;101072.22;5059210;28;9820;-65
2022/11/03 02:33:09;;;;;;;;;3.00;1.75;;;;;11.52;68.59;101068.47;5052662;28;9924;-66
2022/11/03 02:35:51;;;;;;;;;5.00;5.00;;;;;11.51;68.78;101071.38;5052622;28;9739;-65
2022/11/03 02:38:21;;;;;;;;;4.25;1.00;;;;;11.45;69.20;101054.09;5051518;28;9860;-65
2022/11/03 02:40:53;;;;;;;;;4.25;1.75;;;;;11.52;68.97;101052.31;5051423;28;9842;-66
2022/11/03 02:43:22;;;;;;;;;1.25;1.00;;;;;11.51;68.71;101037.16;5052840;28;9738;-65
2022/11/03 02:45:50;;;;;;;;;2.00;2.00;;;;;11.49;68.87;101030.28;5052853;28;9977;-67
2022/11/03 02:48:17;;;;;;;;;5.50;3.00;;;;;11.54;69.09;101031.34;5051730;28;10004;-67
2022/11/03 02:50:46;;;;;;;;;3.00;1.25;;;;;11.55;69.01;101024.13;5045651;28;9940;-67
2022/11/03 02:53:13;;;;;;;;;3.00;2.00;;;;;11.49;68.92;101019.50;5052263;28;9916;-67
2022/11/03 02:55:58;;;;;;;;;1.00;1.00;;;;;11.51;68.93;101015.59;5052752;28;10770;-67
2022/11/03 02:58:58;;;;;;;;;2.00;2.00;;;;;11.53;68.92;101012.69;5045630;28;10028;-68
2022/11/03 03:01:35;;;;;;;;;1.00;1.00;;;;;11.56;68.84;101004.22;5052584;28;10069;-67
2022/11/03 03:04:08;;;;;;;;;2.50;1.50;;;;;11.56;68.40;101001.53;5051898;28;10108;-67
2022/11/03 03:06:54;;;;;;;;;1.75;1.00;;;;;11.52;69.11;101001.06;5048192;28;10904;-67
2022/11/03 03:09:27;;;;;;;;;0.50;0.25;;;;;11.57;68.99;101005.88;5050340;28;9921;-66
2022/11/03 03:11:57;;;;;;;;;2.75;1.25;;;;;11.60;69.02;101000.94;5053161;28;9863;-67
2022/11/03 03:14:33;;;;;;;;;1.25;1.25;;;;;11.61;69.04;100985.59;5051496;28;10021;-67
2022/11/03 03:17:29;;;;;;;;;1.25;1.25;;;;;11.60;69.15;100990.16;5049303;28;9997;-67
2022/11/03 03:20:04;;;;;;;;;5.75;3.00;;;;;11.45;69.67;100977.78;5051178;28;9893;-67
2022/11/03 03:22:38;;;;;;;;;1.00;1.00;;;;;11.51;70.07;100982.41;5052060;28;10016;-67
2022/11/03 03:25:23;;;;;;;;;3.00;3.00;;;;;11.55;69.38;100972.91;5051698;28;9844;-67
2022/11/03 03:27:57;;;;;;;;;1.75;1.75;;;;;11.45;70.01;100973.22;5049190;28;9930;-68
2022/11/03 03:30:24;;;;;;;;;4.00;1.25;;;;;11.48;69.93;100964.75;5050995;28;10003;-67
2022/11/03 03:32:51;;;;;;;;;1.00;1.00;;;;;11.51;70.08;100958.97;5051305;28;10576;-67
2022/11/03 03:35:22;;;;;;;;;2.50;2.00;;;;;11.50;69.90;100949.22;5051492;28;9756;-67
2022/11/03 03:37:55;;;;;;;;;2.00;2.00;;;;;11.45;70.62;100940.88;5051604;28;9860;-67
2022/11/03 03:40:28;;;;;;;;;1.25;1.00;;;;;11.42;70.53;100959.31;5050375;28;10569;-67
2022/11/03 03:42:56;;;;;;;;;1.00;1.00;;;;;11.48;70.41;100974.72;5053506;28;9814;-67
2022/11/03 03:45:24;;;;;;;;;1.50;1.00;;;;;11.44;70.86;100963.50;5053234;28;9688;-67
2022/11/03 03:47:51;;;;;;;;;4.25;2.00;;;;;11.41;70.95;100952.25;5048101;28;9832;-68
2022/11/03 03:50:25;;;;;;;;;7.25;3.00;;;;;11.42;71.18;100959.31;5051369;28;9838;-67
2022/11/03 03:53:08;;;;;;;;;3.50;1.75;;;;;11.44;71.48;100959.97;5051706;28;9922;-69
2022/11/03 03:55:37;;;;;;;;;5.75;3.00;;;;;11.54;70.95;100953.16;5051921;28;9944;-68
2022/11/03 03:58:05;;;;;;;;;5.50;1.00;;;;;11.50;70.72;100962.69;5051542;28;9738;-67
2022/11/03 04:00:31;;;;;;;;;5.00;3.00;;;;;11.52;71.01;100955.25;5049835;28;9885;-68
2022/11/03 04:02:58;;;;;;;;;1.00;1.00;;;;;11.52;71.00;100951.72;5051042;28;9939;-68
2022/11/03 04:05:25;;;;;;;;;2.00;2.00;;;;;11.42;71.28;100943.97;5051502;28;9849;-66
2022/11/03 04:07:52;;;;;;;;;2.00;2.00;;;;;11.44;71.47;100931.16;5051540;28;9720;-68
2022/11/03 04:10:21;;;;;;;;;4.25;4.00;;;;;11.47;71.38;100938.00;5051083;28;10591;-67
2022/11/03 04:24:08;;;;;;;;;3.75;2.00;;;;;11.50;72.32;100924.94;5049788;28;9740;-68
2022/11/03 04:26:34;;;;;;;;;5.75;3.00;;;;;11.46;72.15;100920.16;5052650;28;9762;-68
2022/11/03 04:29:01;;;;;;;;;2.00;1.25;;;;;11.51;72.49;100923.94;5048647;28;10027;-68
2022/11/03 04:31:35;;;;;;;;;2.50;1.50;;;;;11.61;72.22;100919.00;5050456;28;9896;-67
2022/11/03 04:34:09;;;;;;;;;1.00;1.00;;;;;11.65;71.77;100911.34;5050151;28;9836;-67
2022/11/03 04:36:35;;;;;;;;;3.25;2.00;;;;;11.65;72.21;100916.75;5050824;28;9841;-68
2022/11/03 04:39:14;;;;;;;;;1.75;1.00;;;;;11.72;71.76;100909.53;5048878;28;9687;-67
2022/11/03 04:41:40;;;;;;;;;4.25;2.00;;;;;11.60;72.44;100908.44;5048537;28;9840;-68
2022/11/03 04:44:14;;;;;;;;;4.25;3.25;;;;;11.55;72.45;100908.19;5049653;28;9913;-67
2022/11/03 04:46:42;;;;;;;;;3.25;2.00;;;;;11.58;72.85;100911.31;5049786;28;9814;-67
2022/11/03 04:49:13;;;;;;;;;5.00;4.00;;;;;11.64;72.59;100905.13;5050274;28;10047;-67
2022/11/03 04:51:40;;;;;;;;;6.25;2.00;;;;;11.61;72.37;100910.09;5049474;28;9837;-67
2022/11/03 04:54:17;;;;;;;;;1.75;1.25;;;;;11.62;72.46;100898.25;5049365;28;9843;-66
2022/11/03 04:56:43;;;;;;;;;1.00;1.00;;;;;11.66;72.71;100896.81;5048513;28;9822;-68
2022/11/03 04:59:11;;;;;;;;;4.00;2.00;;;;;11.59;72.70;100896.00;5050304;28;9823;-67
2022/11/03 05:01:38;;;;;;;;;2.50;2.00;;;;;11.64;72.49;100896.22;5049102;28;9902;-67
2022/11/03 05:04:16;;;;;;;;;8.75;1.50;;;;;11.56;73.04;100893.69;5050143;28;10571;-68
2022/11/03 05:06:50;;;;;;;;;4.00;2.00;;;;;11.57;73.15;100893.47;5048101;28;9748;-67
2022/11/03 05:09:21;;;;;;;;;2.25;1.75;;;;;11.60;72.94;100892.25;5048301;28;10732;-68
2022/11/03 05:11:48;;;;;;;;;1.00;1.00;;;;;11.60;72.90;100886.88;5049937;28;9898;-68
2022/11/03 05:14:19;;;;;;;;;2.00;1.25;;;;;11.56;73.25;100872.94;5050213;28;9948;-68
2022/11/03 05:16:47;;;;;;;;;2.50;1.00;;;;;11.58;73.26;100881.66;5050386;28;9741;-68
2022/11/03 05:19:19;;;;;;;;;2.00;2.00;;;;;11.67;73.25;100876.09;5049522;28;9942;-67
2022/11/03 05:21:48;;;;;;;;;7.50;3.00;;;;;11.63;73.42;100872.97;5049153;28;9893;-68
2022/11/03 05:24:18;;;;;;;;;4.00;1.50;;;;;11.68;72.89;100867.00;5049095;28;9844;-67
2022/11/03 05:26:44;;;;;;;;;3.75;2.50;;;;;11.67;73.37;100862.59;5050211;28;9749;-68
2022/11/03 05:29:22;;;;;;;;;0.75;0.50;;;;;11.69;73.28;100863.25;5050148;28;9929;-66
2022/11/03 05:31:52;;;;;;;;;2.00;2.00;;;;;11.63;73.62;100852.25;5049995;28;10385;-67
2022/11/03 05:34:36;;;;;;;;;5.50;2.00;;;;;11.71;73.13;100845.00;5049634;28;9707;-67
2022/11/03 05:37:05;;;;;;;;;3.75;2.50;;;;;11.71;73.16;100839.59;5050974;28;9856;-68
2022/11/03 05:39:39;;;;;;;;;1.25;1.25;;;;;11.75;73.08;100843.56;5048500;28;9843;-67
2022/11/03 05:42:23;;;;;;;;;9.00;2.75;;;;;11.79;72.82;100837.59;5048715;28;9843;-67
2022/11/03 05:44:50;;;;;;;;;1.00;1.00;;;;;11.77;73.38;100839.63;5049588;28;9842;-67
2022/11/03 05:47:23;;;;;;;;;2.00;0.50;;;;;11.83;72.96;100836.16;5051728;28;9755;-67
2022/11/03 05:49:53;;;;;;;;;4.25;2.00;;;;;11.82;72.43;100837.16;5053928;28;9653;-66
2022/11/03 05:52:23;;;;;;;;;2.75;2.00;;;;;11.78;72.86;100827.81;5053148;28;10378;-67
2022/11/03 05:54:52;;;;;;;;;3.00;1.25;;;;;11.78;73.03;100824.28;5053372;28;9762;-68
2022/11/03 05:57:19;;;;;;;;;1.00;1.00;;;;;11.77;73.04;100828.00;5051271;28;9863;-68
2022/11/03 05:59:48;;;;;;;;;1.25;1.00;;;;;11.77;73.09;100823.44;5053046;28;9647;-67
2022/11/03 06:02:35;;;;;;;;;4.00;3.00;;;;;11.77;73.25;100819.94;5052789;28;9665;-68
2022/11/03 06:05:14;;;;;;;;;1.00;1.00;;;;;11.80;73.28;100817.66;5052352;28;9930;-68
2022/11/03 06:07:40;;;;;;;;;3.50;2.00;;;;;11.80;73.70;100811.44;5044634;28;9696;-68
2022/11/03 06:10:34;;;;;;;;;2.75;2.25;;;;;11.83;72.98;100816.47;5053101;28;9767;-67
2022/11/03 06:13:07;;;;;;;;;2.00;2.00;;;;;11.85;73.33;100817.91;5053297;28;9665;-67
2022/11/03 06:15:34;;;;;;;;;3.00;2.00;;;;;11.72;73.74;100804.34;5055094;28;9826;-68
2022/11/03 06:18:17;;;;;;;;;1.75;1.75;;;;;11.68;74.21;100810.38;5053460;28;9703;-68
2022/11/03 06:20:51;;;;;;;;;2.50;2.00;;;;;11.79;73.84;100809.78;5052431;28;9574;-68
2022/11/03 06:23:19;;;;;;;;;4.00;1.50;;;;;11.80;74.02;100806.88;5050269;28;9683;-68
2022/11/03 06:25:47;;;;;;;;;1.00;1.00;;;;;11.83;74.04;100805.69;5053317;28;9608;-68
2022/11/03 06:28:31;;;;;;;;;7.75;3.00;;;;;11.80;73.84;100797.94;5053437;28;9702;-68
2022/11/03 06:30:57;;;;;;;;;2.00;2.00;;;;;11.75;73.96;100793.16;5033228;28;9691;-68
2022/11/03 06:33:26;;;;;;;;;3.50;1.50;;;;;11.80;74.30;100789.88;5049088;28;9760;-68
2022/11/03 06:35:57;;;;;;;;;2.00;2.00;;;;;11.78;74.11;100783.81;5052705;28;9757;-68
2022/11/03 06:38:28;;;;;;;;;6.75;4.50;;;;;11.78;74.52;100792.75;5052559;28;9678;-67
2022/11/03 06:40:57;;;;;;;;;1.75;1.25;;;;;11.73;74.38;100787.13;5052820;28;10126;-68
2022/11/03 06:43:38;;;;;;;;;3.25;2.00;;;;;11.73;74.33;100779.03;5052335;28;9746;-67
2022/11/03 06:46:13;;;;;;;;;2.00;1.25;;;;;11.79;74.48;100769.34;5051846;28;9693;-67
2022/11/03 06:48:40;;;;;;;;;3.00;2.75;;;;;11.77;74.31;100785.69;5052188;28;9683;-67
2022/11/03 06:51:19;;;;;;;;;1.25;1.25;;;;;11.84;74.36;100769.56;5052677;28;9680;-68
2022/11/03 06:53:48;;;;;;;;;3.75;3.00;;;;;11.85;74.34;100774.75;5051834;28;9770;-68
2022/11/03 06:56:18;;;;;;;;;2.75;2.50;;;;;11.87;74.67;100764.59;5049858;28;9761;-67
2022/11/03 06:58:50;;;;;;;;;5.00;3.50;;;;;11.82;74.85;100764.34;5050661;28;9767;-68
2022/11/03 07:01:25;;;;;;;;;1.50;1.00;;;;;11.88;74.72;100763.56;5044625;28;9867;-68
2022/11/03 07:04:00;;;;;;;;;3.00;3.00;;;;;11.94;74.44;100766.47;5050462;28;9716;-68
2022/11/03 07:06:33;;;;;;;;;2.00;2.00;;;;;11.97;74.26;100766.06;5052239;28;9774;-67
2022/11/03 07:09:03;;;;;;;;;5.25;3.00;;;;;11.98;74.27;100768.53;5032440;28;10738;-67
2022/11/03 07:11:34;;;;;;;;;2.00;2.00;;;;;11.95;74.29;100763.59;5050420;28;9800;-68
2022/11/03 07:14:30;;;;;;;;;2.00;2.00;;;;;11.90;74.56;100763.34;5052330;28;9753;-68
2022/11/03 07:17:02;;;;;;;;;3.50;1.75;;;;;11.98;74.26;100762.31;5051657;28;9743;-67
2022/11/03 07:19:33;;;;;;;;;2.00;2.00;;;;;12.02;74.13;100755.47;5050697;28;9832;-67
2022/11/03 07:22:02;;;;;;;;;2.50;1.00;;;;;11.98;74.33;100756.94;5051426;28;9659;-68
2022/11/03 07:24:40;;;;;;;;;9.25;3.75;;;;;12.01;74.59;100753.81;5050343;28;10314;-67
2022/11/03 07:27:18;;;;;;;;;3.50;2.75;;;;;11.91;74.81;100743.44;5049563;28;9867;-66
2022/11/03 07:29:46;;;;;;;;;2.00;2.00;;;;;11.92;75.14;100749.66;5047335;28;9696;-68
2022/11/03 07:32:22;;;;;;;;;2.00;2.00;;;;;11.95;74.99;100751.94;5049578;28;9788;-65
2022/11/03 07:34:51;;;;;;;;;3.00;3.00;;;;;11.94;75.36;100755.69;5045102;28;9673;-67
2022/11/03 07:37:23;;;;;;;;;6.50;4.00;;;;;11.87;75.40;100743.03;5049862;28;9854;-67
2022/11/03 07:39:51;;;;;;;;;4.50;4.50;;;;;11.95;75.59;100741.16;5051390;28;10591;-67
2022/11/03 07:42:20;;;;;;;;;3.00;3.00;;;;;11.91;75.55;100731.81;5048576;28;9742;-68
2022/11/03 07:44:48;;;;;;;;;2.75;1.00;;;;;11.97;75.49;100733.69;5049173;28;9756;-67
2022/11/03 07:47:19;;;;;;;;;3.00;2.00;;;;;11.98;75.63;100732.66;5045138;28;9843;-67
2022/11/03 07:49:46;;;;;;;;;2.00;2.00;;;;;12.01;75.35;100738.47;5044557;28;9717;-67
2022/11/03 07:52:19;;;;;;;;;1.00;1.00;;;;;12.04;75.31;100731.84;5044745;28;9792;-67
2022/11/03 07:54:46;;;;;;;;;6.50;2.25;;;;;12.06;75.62;100733.28;5032000;28;9526;-66
2022/11/03 07:57:15;;;;;;;;;2.00;2.00;;;;;12.06;75.01;100721.66;5045278;28;9721;-67
2022/11/03 07:59:44;;;;;;;;;2.00;2.00;;;;;11.98;76.05;100720.00;5044491;28;9765;-66
2022/11/03 08:02:25;;;;;;;;;2.75;2.75;;;;;12.08;75.75;100711.50;5047083;28;9851;-66
2022/11/03 08:04:51;;;;;;;;;2.75;2.75;;;;;12.04;75.71;100704.88;5044032;28;9732;-67
2022/11/03 08:07:18;;;;;;;;;5.75;3.00;;;;;12.07;75.97;100717.91;5048765;28;9902;-67
2022/11/03 08:09:44;;;;;;;;;2.00;2.00;;;;;12.18;75.65;100708.38;5050239;28;9945;-67
2022/11/03 08:12:10;;;;;;;;;5.75;2.00;;;;;12.23;75.24;100711.28;5050200;28;9668;-67
2022/11/03 08:14:37;;;;;;;;;2.00;1.50;;;;;12.28;74.99;100708.81;5050304;28;9882;-68
2022/11/03 08:17:04;;;;;;;;;4.50;4.50;;;;;12.22;75.44;100729.34;5049611;28;9868;-66
2022/11/03 08:19:30;;;;;;;;;3.00;3.00;;;;;12.14;75.81;100716.06;5048645;28;9860;-66
2022/11/03 08:21:56;;;;;;;;;5.50;2.75;;;;;12.18;75.76;100709.19;5050741;28;9570;-66
2022/11/03 08:24:23;;;;;;;;;3.00;3.00;;;;;12.15;76.12;100693.41;5048503;28;9662;-66
2022/11/03 08:26:49;;;;;;;;;4.00;1.75;;;;;12.16;75.90;100692.41;5048513;28;9769;-65
2022/11/03 08:29:16;;;;;;;;;4.00;4.00;;;;;12.14;76.28;100678.28;5050584;28;9777;-66
2022/11/03 08:31:43;;;;;;;;;2.00;2.00;;;;;12.16;76.35;100683.47;5049771;28;9650;-65
2022/11/03 08:34:10;;;;;;;;;2.00;1.00;;;;;12.25;75.99;100676.81;5050088;28;9667;-66
2022/11/03 08:36:36;;;;;;;;;2.00;2.00;;;;;12.32;75.92;100681.19;5049539;28;9592;-66
2022/11/03 08:39:04;;;;;;;;;4.25;2.50;;;;;12.29;75.80;100662.69;5046811;28;9526;-66
2022/11/03 08:41:30;;;;;;;;;4.00;4.00;;;;;12.38;75.76;100663.31;5045199;28;9600;-70
2022/11/03 08:43:56;;;;;;;;;1.25;1.25;;;;;12.45;75.45;100650.63;5048055;28;9604;-64
2022/11/03 08:46:23;;;;;;;;;3.00;2.00;;;;;12.52;75.21;100647.94;5050399;28;9690;-67
2022/11/03 08:48:50;;;;;;;;;1.50;1.50;;;;;12.52;75.31;100634.44;5050304;28;9764;-68
2022/11/03 08:51:17;;;;;;;;;2.50;1.50;;;;;12.42;75.57;100640.25;5049602;28;9615;-66
2022/11/03 08:53:43;;;;;;;;;3.00;3.00;;;;;12.49;75.67;100641.06;5050186;28;9704;-68
2022/11/03 08:56:11;;;;;;;;;4.00;4.00;;;;;12.55;75.29;100633.97;5050286;28;9608;-67
2022/11/03 08:58:40;;;;;;;;;5.00;4.00;;;;;12.60;74.99;100623.41;5048861;28;9700;-67
2022/11/03 09:01:07;;;;;;;;;5.50;3.00;;;;;12.60;75.03;100618.00;5048902;28;9605;-67
2022/11/03 09:03:33;;;;;;;;;4.25;4.25;;;;;12.62;74.97;100613.19;5049762;28;9653;-67
2022/11/03 09:06:00;;;;;;;;;3.00;2.00;;;;;12.54;75.35;100611.56;5063801;28;9518;-67
2022/11/03 09:08:26;;;;;;;;;1.00;1.00;;;;;12.64;74.79;100600.31;5049391;28;9747;-67
2022/11/03 09:11:13;;;;;;;;;2.00;2.00;;;;;12.65;74.82;100593.88;5047871;28;9596;-65
2022/11/03 09:13:39;;;;;;;;;3.00;3.00;;;;;12.70;74.67;100571.63;5048606;28;9646;-65
2022/11/03 09:16:06;;;;;;;;;3.50;3.50;;;;;12.63;75.02;100558.13;5049733;28;10227;-66
2022/11/03 09:18:32;;;;;;;;;3.00;2.00;;;;;12.62;75.13;100565.41;5049600;28;10289;-68
2022/11/03 09:20:59;;;;;;;;;4.25;2.00;;;;;12.78;74.56;100568.66;5045918;28;9438;-67
2022/11/03 09:23:25;;;;;;;;;1.50;1.50;;;;;12.76;74.53;100568.03;5047808;28;9600;-67
2022/11/03 09:25:52;;;;;;;;;2.00;2.00;;;;;12.80;74.55;100559.31;5048485;28;9453;-66
2022/11/03 09:28:18;;;;;;;;;4.50;4.00;;;;;12.81;74.46;100554.75;5048731;28;9374;-67
2022/11/03 09:30:44;;;;;;;;;2.00;1.25;;;;;12.84;74.35;100549.75;5048902;28;9528;-67
2022/11/03 09:33:11;;;;;;;;;3.50;2.00;;;;;12.93;73.72;100557.59;5048315;28;9517;-67
2022/11/03 09:35:37;;;;;;;;;1.67;1.67;;;;;12.92;74.02;100528.91;5046417;28;9389;-68
2022/11/03 09:38:06;;;;;;;;;1.00;1.00;;;;;12.90;73.91;100531.00;5049349;28;9462;-68
2022/11/03 09:40:34;;;;;;;;;1.75;1.50;;;;;12.85;74.02;100528.94;5048683;28;9389;-68
2022/11/03 09:43:01;;;;;;;;;2.00;2.00;;;;;12.97;73.73;100526.38;5047383;28;9634;-68
2022/11/03 09:45:27;;;;;;;;;1.33;1.00;;;;;13.00;73.39;100532.16;5047351;28;9323;-68
2022/11/03 09:47:55;;;;;;;;;3.00;2.25;;;;;12.97;73.36;100526.38;5049588;28;9311;-68
2022/11/03 09:50:21;;;;;;;;;3.00;2.00;;;;;13.04;73.25;100511.75;5048081;28;9312;-68
2022/11/03 09:52:50;;;;;;;;;3.50;2.25;;;;;13.05;73.07;100524.25;5047451;28;10449;-67
2022/11/03 09:55:25;;;;;;;;;2.00;2.00;;;;;13.04;72.98;100505.53;5048562;28;9534;-67
2022/11/03 09:57:56;;;;;;;;;2.00;2.00;;;;;13.05;72.79;100499.09;5049491;28;10156;-68
2022/11/03 10:00:23;;;;;;;;;1.00;1.00;;;;;13.11;72.28;100498.22;5047272;28;9481;-68
2022/11/03 10:02:49;;;;;;;;;2.25;2.25;;;;;13.11;72.15;100495.50;5044338;28;9441;-68
2022/11/03 10:05:25;;;;;;;;;2.67;2.67;;;;;13.18;71.94;100496.28;5044896;28;9398;-68
2022/11/03 10:08:04;;;;;;;;;1.00;1.00;;;;;13.24;71.59;100487.31;5056317;28;9451;-68
2022/11/03 10:10:31;;;;;;;;;3.50;2.00;;;;;13.29;71.33;100497.50;5047454;28;9313;-68
2022/11/03 10:12:59;;;;;;;;;2.00;2.00;;;;;13.26;71.16;100492.53;5048957;28;9454;-68
2022/11/03 10:15:26;;;;;;;;;2.50;2.50;;;;;13.34;71.00;100489.56;5048788;28;9376;-68
2022/11/03 10:17:54;;;;;;;;;3.00;3.00;;;;;13.37;70.82;100486.41;5048876;28;9320;-67
2022/11/03 10:20:21;;;;;;;;;2.00;2.00;;;;;13.42;70.78;100485.75;5048209;28;9395;-69
2022/11/03 10:22:52;;;;;;;;;2.00;1.33;;;;;13.48;70.26;100476.72;5048759;28;9395;-67
2022/11/03 10:25:42;;;;;;;;;5.00;2.33;;;;;13.59;69.77;100481.41;5049253;28;10082;-67
2022/11/03 10:28:25;;;;;;;;;2.00;2.00;;;;;13.55;69.99;100480.22;5049456;28;9289;-67
2022/11/03 10:31:07;;;;;;;;;5.00;5.00;;;;;13.42;70.04;100464.13;5049013;28;9442;-66
2022/11/03 10:33:51;;;;;;;;;3.50;1.00;;;;;13.40;70.03;100461.63;5047639;28;9416;-66
2022/11/03 10:36:25;;;;;;;;;4.00;1.33;;;;;13.39;70.08;100459.97;5050595;28;9472;-66
2022/11/03 10:38:52;;;;;;;;;1.33;1.33;;;;;13.48;69.62;100464.03;5052874;28;9504;-65
2022/11/03 10:41:25;;;;;;;;;2.00;2.00;;;;;13.57;69.81;100451.91;5052515;28;9357;-67
2022/11/03 10:44:02;;;;;;;;;2.00;2.00;;;;;13.51;69.75;100441.97;5047321;28;9385;-69
2022/11/03 10:46:29;;;;;;;;;4.50;2.00;;;;;13.41;69.64;100441.66;5052990;28;9476;-67
2022/11/03 10:49:18;;;;;;;;;2.00;1.75;;;;;13.43;69.47;100434.13;5052495;28;10117;-67
2022/11/03 10:51:51;;;;;;;;;4.00;2.00;;;;;13.52;69.38;100423.84;5051395;28;9651;-67
2022/11/03 10:54:21;;;;;;;;;3.75;3.75;;;;;13.43;69.32;100419.81;5050045;28;9411;-67
2022/11/03 10:56:49;;;;;;;;;2.00;2.00;;;;;13.40;69.25;100402.13;5052035;28;9559;-67
2022/11/03 10:59:19;;;;;;;;;2.75;2.00;;;;;13.39;69.30;100394.25;5051567;28;9467;-66
2022/11/03 11:01:45;;;;;;;;;3.50;2.75;;;;;13.54;69.15;100397.44;5052492;28;9724;-65
2022/11/03 11:04:17;;;;;;;;;1.75;1.25;;;;;13.51;69.00;100395.16;5051474;28;9557;-66
2022/11/03 11:06:45;;;;;;;;;3.25;2.75;;;;;13.48;68.79;100384.78;5050161;28;9461;-67
2022/11/03 11:09:16;;;;;;;;;2.50;2.50;;;;;13.49;68.89;100381.03;5049229;28;9463;-67
2022/11/03 11:11:59;;;;;;;;;3.50;3.50;;;;;13.55;68.67;100377.44;5049140;28;9390;-66
2022/11/03 11:14:26;;;;;;;;;3.00;3.00;;;;;13.62;68.26;100361.16;5049924;28;9463;-65
2022/11/03 11:16:57;;;;;;;;;3.25;3.00;;;;;13.58;68.32;100367.00;5054090;28;9285;-66
2022/11/03 11:19:26;;;;;;;;;1.33;1.33;;;;;13.68;68.31;100363.75;5049223;28;9361;-65
2022/11/03 11:21:52;;;;;;;;;4.33;1.00;;;;;13.82;67.89;100370.69;5051709;28;9233;-66
2022/11/03 11:24:44;;;;;;;;;3.00;1.33;;;;;13.77;67.74;100365.13;5050276;28;9382;-67
2022/11/03 11:27:30;;;;;;;;;4.00;4.00;;;;;13.77;67.82;100354.31;5058914;28;9512;-67
2022/11/03 11:29:58;;;;;;;;;3.33;3.33;;;;;13.75;67.73;100356.41;5050929;28;9405;-68
2022/11/03 11:32:43;;;;;;;;;5.67;2.67;;;;;13.81;67.51;100355.50;5047696;28;9338;-68
2022/11/03 11:35:38;;;;;;;;;2.67;2.67;;;;;13.91;67.45;100359.53;5049922;28;9373;-67
2022/11/03 11:38:41;;;;;;;;;2.00;2.00;;;;;13.85;67.09;100355.84;5051550;28;9368;-68
2022/11/03 11:41:08;;;;;;;;;4.00;2.33;;;;;13.90;67.16;100347.91;5050336;28;9301;-67
2022/11/03 11:43:35;;;;;;;;;1.67;1.00;;;;;13.95;66.96;100349.91;5047110;28;9382;-66
2022/11/03 11:46:38;;;;;;;;;3.67;2.00;;;;;13.99;66.71;100349.22;5051069;28;9286;-66
2022/11/03 11:49:07;;;;;;;;;1.00;1.00;;;;;14.04;66.87;100333.13;5032376;28;9373;-68
2022/11/03 11:51:36;;;;;;;;;3.00;2.00;;;;;14.09;66.75;100317.00;5041695;28;9250;-67
2022/11/03 11:54:05;;;;;;;;;3.00;2.00;;;;;14.05;66.69;100312.28;5049431;28;9272;-68
2022/11/03 11:56:46;;;;;;;;;1.00;1.00;;;;;13.94;66.55;100299.56;5048220;28;9273;-68
2022/11/03 11:59:19;;;;;;;;;1.00;1.00;;;;;13.96;66.54;100292.03;5050447;28;9162;-66
2022/11/03 12:01:54;;;;;;;;;1.00;1.00;;;;;14.04;66.19;100292.53;5044884;28;9985;-66
2022/11/03 12:04:30;;;;;;;;;2.00;2.00;;;;;13.95;66.48;100296.63;5049920;28;9312;-67
2022/11/03 12:06:57;;;;;;;;;1.67;1.67;;;;;13.91;66.52;100278.38;5048559;28;9392;-68